createdAt,value
2022-10-19T00:00:43.666Z,14.40
2022-10-19T00:03:20.694Z,14.30
2022-10-19T00:05:55.101Z,14.30
2022-10-19T00:08:27.625Z,14.30
2022-10-19T00:11:02.185Z,14.20
2022-10-19T00:13:34.410Z,14.20
2022-10-19T00:16:12.857Z,14.20
2022-10-19T00:18:45.523Z,14.10
2022-10-19T00:21:19.721Z,14.10
2022-10-19T00:23:51.746Z,14.10
2022-10-19T00:26:23.822Z,14.10
2022-10-19T00:28:57.319Z,14.10
2022-10-19T00:31:29.386Z,14.00
2022-10-19T00:34:01.531Z,14.00
2022-10-19T00:36:39.459Z,14.00
2022-10-19T00:39:15.301Z,14.00
2022-10-19T00:41:48.442Z,14.00
2022-10-19T00:44:20.235Z,13.90
2022-10-19T00:46:53.442Z,13.90
2022-10-19T00:49:37.672Z,13.90
2022-10-19T00:52:18.114Z,13.90
2022-10-19T00:54:52.799Z,13.90
2022-10-19T00:57:29.750Z,13.80
2022-10-19T01:00:05.179Z,13.80
2022-10-19T01:02:37.516Z,13.80
2022-10-19T01:05:11.408Z,13.80
2022-10-19T01:07:43.984Z,13.80
2022-10-19T01:10:16.056Z,13.80
2022-10-19T01:13:19.275Z,13.80
2022-10-19T01:16:15.332Z,13.80
2022-10-19T01:19:10.438Z,13.80
2022-10-19T01:21:50.224Z,13.80
2022-10-19T01:24:48.494Z,13.80
2022-10-19T01:28:01.691Z,13.70
2022-10-19T01:30:50.647Z,13.70
2022-10-19T01:33:36.923Z,13.70
2022-10-19T01:36:22.441Z,13.70
2022-10-19T01:39:21.040Z,13.70
2022-10-19T01:42:12.574Z,13.70
2022-10-19T01:45:00.651Z,13.60
2022-10-19T01:47:47.555Z,13.60
2022-10-19T01:50:45.925Z,13.60
2022-10-19T01:53:20.821Z,13.60
2022-10-19T01:55:55.837Z,13.50
2022-10-19T01:58:33.691Z,13.50
2022-10-19T02:03:48.223Z,13.50
2022-10-19T02:06:20.954Z,13.50
2022-10-19T02:08:54.595Z,13.40
2022-10-19T02:11:27.120Z,13.40
2022-10-19T02:14:13.407Z,13.40
2022-10-19T02:16:58.913Z,13.40
2022-10-19T02:19:31.201Z,13.40
2022-10-19T02:22:03.787Z,13.30
2022-10-19T02:24:35.789Z,13.30
2022-10-19T02:27:09.353Z,13.30
2022-10-19T02:29:41.662Z,13.20
2022-10-19T02:32:13.979Z,13.20
2022-10-19T02:34:46.383Z,13.20
2022-10-19T02:37:20.974Z,13.20
2022-10-19T02:39:55.464Z,13.20
2022-10-19T02:42:41.322Z,13.10
2022-10-19T02:45:23.771Z,13.10
2022-10-19T02:48:07.212Z,13.10
2022-10-19T02:50:44.027Z,13.10
2022-10-19T02:53:16.713Z,13.00
2022-10-19T02:55:50.042Z,13.00
2022-10-19T02:58:22.228Z,13.00
2022-10-19T03:00:54.937Z,13.00
2022-10-19T03:03:26.796Z,12.90
2022-10-19T03:05:58.642Z,12.90
2022-10-19T03:08:30.524Z,12.90
2022-10-19T03:11:02.684Z,12.90
2022-10-19T03:13:34.683Z,12.90
2022-10-19T03:16:12.712Z,12.80
2022-10-19T03:18:44.672Z,12.80
2022-10-19T03:21:17.947Z,12.80
2022-10-19T03:23:49.862Z,12.80
2022-10-19T03:26:21.888Z,12.80
2022-10-19T03:28:53.788Z,12.70
2022-10-19T03:31:27.154Z,12.70
2022-10-19T03:33:59.052Z,12.70
2022-10-19T03:36:37.484Z,12.70
2022-10-19T03:39:14.355Z,12.70
2022-10-19T03:41:46.586Z,12.70
2022-10-19T03:44:18.528Z,12.70
2022-10-19T03:46:50.421Z,12.60
2022-10-19T03:49:22.385Z,12.60
2022-10-19T03:51:54.265Z,12.60
2022-10-19T03:54:27.464Z,12.60
2022-10-19T03:56:59.589Z,12.50
2022-10-19T03:59:31.560Z,12.50
2022-10-19T04:02:04.109Z,12.50
2022-10-19T04:04:36.141Z,12.50
2022-10-19T04:07:08.013Z,12.50
2022-10-19T04:09:39.983Z,12.40
2022-10-19T04:12:11.976Z,12.40
2022-10-19T04:14:56.872Z,12.40
2022-10-19T04:17:29.607Z,12.40
2022-10-19T04:20:01.558Z,12.30
2022-10-19T04:22:33.574Z,12.30
2022-10-19T04:25:06.529Z,12.30
2022-10-19T04:27:38.476Z,12.30
2022-10-19T04:30:11.107Z,12.30
2022-10-19T04:32:42.977Z,12.20
2022-10-19T04:35:14.904Z,12.20
2022-10-19T04:37:46.810Z,12.20
2022-10-19T04:40:18.694Z,12.20
2022-10-19T04:42:50.583Z,12.20
2022-10-19T04:45:22.460Z,12.20
2022-10-19T04:47:56.633Z,12.20
2022-10-19T04:50:28.580Z,12.20
2022-10-19T04:53:00.506Z,12.20
2022-10-19T04:55:32.467Z,12.20
2022-10-19T04:58:04.368Z,12.20
2022-10-19T05:00:39.229Z,12.20
2022-10-19T05:03:11.166Z,12.20
2022-10-19T05:05:43.074Z,12.20
2022-10-19T05:08:14.970Z,12.20
2022-10-19T05:10:47.779Z,12.20
2022-10-19T05:13:19.779Z,12.20
2022-10-19T05:16:00.785Z,12.20
2022-10-19T05:18:33.862Z,12.20
2022-10-19T05:21:14.173Z,12.10
2022-10-19T05:23:46.377Z,12.10
2022-10-19T05:26:21.059Z,12.10
2022-10-19T05:29:01.579Z,12.10
2022-10-19T05:31:34.876Z,12.10
2022-10-19T05:36:40.937Z,12.10
2022-10-19T05:39:18.037Z,12.00
2022-10-19T05:41:50.325Z,12.00
2022-10-19T05:44:23.823Z,12.00
2022-10-19T05:46:55.810Z,12.00
2022-10-19T05:49:27.908Z,12.00
2022-10-19T05:51:59.844Z,12.00
2022-10-19T05:54:31.801Z,12.00
2022-10-19T05:57:04.067Z,12.00
2022-10-19T05:59:35.977Z,12.00
2022-10-19T06:02:14.644Z,12.00
2022-10-19T06:04:46.537Z,12.00
2022-10-19T06:07:18.585Z,12.00
2022-10-19T06:09:50.484Z,12.00
2022-10-19T06:12:24.953Z,11.90
2022-10-19T06:14:57.123Z,11.90
2022-10-19T06:17:29.556Z,11.90
2022-10-19T06:20:01.482Z,11.90
2022-10-19T06:22:33.383Z,11.90
2022-10-19T06:25:05.908Z,11.90
2022-10-19T06:27:38.068Z,11.90
2022-10-19T06:30:11.063Z,11.90
2022-10-19T06:32:42.956Z,11.80
2022-10-19T06:35:16.142Z,11.90
2022-10-19T06:37:48.168Z,11.80
2022-10-19T06:40:20.122Z,11.80
2022-10-19T06:42:52.336Z,11.80
2022-10-19T06:45:24.512Z,11.80
2022-10-19T06:47:56.474Z,11.80
2022-10-19T06:50:28.369Z,11.80
2022-10-19T06:53:00.296Z,11.80
2022-10-19T06:55:32.252Z,11.80
2022-10-19T06:58:04.579Z,11.90
2022-10-19T07:00:36.533Z,11.90
2022-10-19T07:03:08.489Z,11.90
2022-10-19T07:05:40.427Z,12.00
2022-10-19T07:08:12.318Z,12.00
2022-10-19T07:10:44.237Z,12.00
2022-10-19T07:13:16.304Z,12.10
2022-10-19T07:15:48.654Z,12.10
2022-10-19T07:18:20.536Z,12.10
2022-10-19T07:21:01.930Z,12.10
2022-10-19T07:23:36.252Z,12.10
2022-10-19T07:26:13.073Z,12.10
2022-10-19T07:28:47.819Z,12.20
2022-10-19T07:31:23.669Z,12.30
2022-10-19T07:34:03.641Z,12.40
2022-10-19T07:36:36.933Z,12.50
2022-10-19T07:39:10.436Z,12.60
2022-10-19T07:41:43.496Z,12.80
2022-10-19T07:44:16.017Z,12.80
2022-10-19T07:46:47.937Z,12.90
2022-10-19T07:49:20.717Z,13.00
2022-10-19T07:51:54.244Z,13.00
2022-10-19T07:54:27.433Z,13.20
2022-10-19T07:56:59.349Z,13.30
2022-10-19T07:59:31.239Z,13.30
2022-10-19T08:02:04.861Z,13.40
2022-10-19T08:07:34.250Z,13.60
2022-10-19T08:10:06.755Z,13.70
2022-10-19T08:12:38.685Z,13.80
2022-10-19T08:15:10.730Z,13.80
2022-10-19T08:17:42.742Z,14.00
2022-10-19T08:20:14.664Z,14.20
2022-10-19T08:22:46.881Z,14.30
2022-10-19T08:25:18.993Z,14.40
2022-10-19T08:27:50.866Z,14.50
2022-10-19T08:30:22.721Z,14.60
2022-10-19T08:32:54.655Z,14.70
2022-10-19T08:35:26.603Z,14.80
2022-10-19T08:37:59.139Z,14.80
2022-10-19T08:40:31.898Z,14.90
2022-10-19T08:43:24.760Z,14.90
2022-10-19T08:46:33.676Z,15.00
2022-10-19T08:49:09.469Z,15.10
2022-10-19T08:51:46.880Z,15.10
2022-10-19T08:54:19.658Z,15.20
2022-10-19T08:57:37.316Z,15.20
2022-10-19T09:00:44.061Z,15.30
2022-10-19T09:03:55.383Z,15.30
2022-10-19T09:07:03.381Z,15.40
2022-10-19T09:09:42.918Z,15.60
2022-10-19T09:12:24.882Z,15.60
2022-10-19T09:15:01.207Z,15.70
2022-10-19T09:17:33.718Z,15.80
2022-10-19T09:20:34.716Z,15.90
2022-10-19T09:23:41.860Z,16.00
2022-10-19T09:26:22.039Z,16.10
2022-10-19T09:29:27.945Z,16.10
2022-10-19T09:32:05.438Z,16.10
2022-10-19T09:34:47.989Z,16.10
2022-10-19T09:37:26.386Z,16.10
2022-10-19T09:39:58.873Z,16.10
2022-10-19T09:42:34.186Z,16.20
2022-10-19T09:45:26.010Z,16.30
2022-10-19T09:48:08.578Z,16.40
2022-10-19T09:50:59.969Z,16.50
2022-10-19T09:53:32.034Z,16.60
2022-10-19T09:56:08.075Z,16.60
2022-10-19T09:58:49.731Z,16.60
2022-10-19T10:01:43.829Z,16.70
2022-10-19T10:04:18.431Z,16.70
2022-10-19T10:06:50.610Z,16.80
2022-10-19T10:09:28.413Z,16.70
2022-10-19T10:12:00.650Z,16.80
2022-10-19T10:14:36.915Z,16.80
2022-10-19T10:17:21.887Z,16.90
2022-10-19T10:19:59.829Z,16.90
2022-10-19T10:22:36.691Z,17.00
2022-10-19T10:25:18.645Z,17.00
2022-10-19T10:28:16.900Z,17.00
2022-10-19T10:30:55.798Z,17.00
2022-10-19T10:33:44.123Z,17.10
2022-10-19T10:36:18.202Z,17.10
2022-10-19T10:41:44.669Z,17.30
2022-10-19T10:44:36.247Z,17.40
2022-10-19T10:47:16.744Z,17.40
2022-10-19T10:50:06.839Z,17.60
2022-10-19T10:52:58.968Z,17.60
2022-10-19T10:55:32.861Z,17.60
2022-10-19T10:58:28.213Z,17.60
2022-10-19T11:01:14.054Z,17.60
2022-10-19T11:03:59.745Z,17.60
2022-10-19T11:06:34.791Z,17.70
2022-10-19T11:09:29.414Z,17.80
2022-10-19T11:12:10.457Z,18.00
2022-10-19T11:15:02.904Z,18.20
2022-10-19T11:17:44.045Z,18.30
2022-10-19T11:20:16.871Z,18.40
2022-10-19T11:23:23.235Z,18.40
2022-10-19T11:26:30.545Z,18.40
2022-10-19T11:29:36.495Z,18.40
2022-10-19T11:32:58.833Z,18.40
2022-10-19T11:35:49.640Z,18.50
2022-10-19T11:38:53.829Z,18.50
2022-10-19T11:42:14.482Z,18.60
2022-10-19T11:45:19.431Z,18.70
2022-10-19T11:48:37.687Z,18.60
2022-10-19T11:51:40.013Z,18.60
2022-10-19T11:54:26.745Z,18.50
2022-10-19T11:57:13.478Z,18.50
2022-10-19T12:00:14.541Z,18.40
2022-10-19T12:03:28.254Z,18.40
2022-10-19T12:06:15.081Z,18.40
2022-10-19T12:09:19.920Z,18.30
2022-10-19T12:12:19.618Z,18.30
2022-10-19T12:15:23.841Z,18.20
2022-10-19T12:18:05.011Z,18.30
2022-10-19T12:20:54.975Z,18.30
2022-10-19T12:23:39.979Z,18.40
2022-10-19T12:29:12.319Z,18.60
2022-10-19T12:31:46.321Z,18.80
2022-10-19T12:34:38.823Z,19.10
2022-10-19T12:37:35.114Z,19.40
2022-10-19T12:40:33.700Z,19.60
2022-10-19T12:43:20.010Z,19.80
2022-10-19T12:46:26.973Z,19.90
2022-10-19T12:49:27.096Z,20.10
2022-10-19T12:52:01.200Z,20.30
2022-10-19T12:54:38.060Z,20.40
2022-10-19T12:57:40.688Z,20.50
2022-10-19T13:00:25.217Z,20.50
2022-10-19T13:03:04.863Z,20.40
2022-10-19T13:05:37.170Z,20.40
2022-10-19T13:08:12.327Z,20.40
2022-10-19T13:11:14.542Z,20.40
2022-10-19T13:14:43.883Z,20.40
2022-10-19T13:17:51.081Z,20.30
2022-10-19T13:20:24.928Z,20.20
2022-10-19T13:22:59.815Z,20.20
2022-10-19T13:25:42.101Z,20.10
2022-10-19T13:28:15.095Z,20.20
2022-10-19T13:30:46.999Z,20.10
2022-10-19T13:33:34.867Z,20.10
2022-10-19T13:36:11.738Z,20.10
2022-10-19T13:38:50.633Z,20.10
2022-10-19T13:41:45.762Z,20.10
2022-10-19T13:44:26.184Z,20.00
2022-10-19T13:47:25.601Z,19.90
2022-10-19T13:50:14.499Z,19.80
2022-10-19T13:53:19.403Z,19.60
2022-10-19T13:56:20.539Z,19.40
2022-10-19T13:59:32.102Z,19.30
2022-10-19T14:02:53.621Z,19.20
2022-10-19T14:05:48.037Z,19.10
2022-10-19T14:09:12.899Z,19.10
2022-10-19T14:11:51.366Z,19.20
2022-10-19T14:14:28.633Z,19.30
2022-10-19T14:17:04.454Z,19.40
2022-10-19T14:19:47.511Z,19.60
2022-10-19T14:22:33.417Z,19.60
2022-10-19T14:25:13.219Z,19.70
2022-10-19T14:27:48.478Z,19.90
2022-10-19T14:30:26.259Z,20.10
2022-10-19T14:33:02.683Z,20.40
2022-10-19T14:35:39.752Z,20.60
2022-10-19T14:38:26.802Z,20.80
2022-10-19T14:40:58.818Z,21.00
2022-10-19T14:43:34.264Z,21.30
2022-10-19T14:46:11.964Z,21.50
2022-10-19T14:48:50.254Z,21.50
2022-10-19T14:51:30.904Z,21.60
2022-10-19T14:54:05.211Z,21.70
2022-10-19T14:57:09.921Z,21.70
2022-10-19T14:59:50.278Z,21.60
2022-10-19T15:02:39.836Z,21.50
2022-10-19T15:05:25.668Z,21.70
2022-10-19T15:07:57.886Z,21.60
2022-10-19T15:10:43.422Z,21.40
2022-10-19T15:13:36.910Z,21.20
2022-10-19T15:16:44.590Z,21.00
2022-10-19T15:19:30.063Z,20.80
2022-10-19T15:22:22.094Z,20.50
2022-10-19T15:25:23.091Z,20.20
2022-10-19T15:27:55.278Z,20.10
2022-10-19T15:30:32.649Z,19.80
2022-10-19T15:33:04.555Z,19.70
2022-10-19T15:35:40.413Z,19.50
2022-10-19T15:38:25.918Z,19.40
2022-10-19T15:41:01.181Z,19.30
2022-10-19T15:43:36.598Z,19.30
2022-10-19T15:46:52.457Z,19.20
2022-10-19T15:49:42.779Z,19.20
2022-10-19T15:52:23.852Z,19.20
2022-10-19T15:54:58.509Z,19.10
2022-10-19T15:57:39.281Z,19.00
2022-10-19T16:00:16.518Z,18.90
2022-10-19T16:02:48.396Z,18.70
2022-10-19T16:05:20.470Z,18.60
2022-10-19T16:07:52.402Z,18.50
2022-10-19T16:10:27.407Z,18.40
2022-10-19T16:12:59.379Z,18.30
2022-10-19T16:15:33.796Z,18.20
2022-10-19T16:18:05.732Z,18.20
2022-10-19T16:20:38.776Z,18.10
2022-10-19T16:23:12.719Z,18.00
2022-10-19T16:25:44.650Z,17.90
2022-10-19T16:28:17.525Z,17.90
2022-10-19T16:30:54.729Z,17.80
2022-10-19T16:33:26.598Z,17.80
2022-10-19T16:35:58.488Z,17.70
2022-10-19T16:38:30.376Z,17.70
2022-10-19T16:41:05.590Z,17.60
2022-10-19T16:43:37.925Z,17.50
2022-10-19T16:46:10.173Z,17.50
2022-10-19T16:48:42.159Z,17.40
2022-10-19T16:51:28.406Z,17.30
2022-10-19T16:54:00.992Z,17.30
2022-10-19T16:56:34.558Z,17.20
2022-10-19T16:59:06.813Z,17.10
2022-10-19T17:01:38.852Z,17.10
2022-10-19T17:04:17.201Z,17.10
2022-10-19T17:06:49.283Z,17.00
2022-10-19T17:09:40.697Z,17.10
2022-10-19T17:12:13.849Z,17.00
2022-10-19T17:14:45.801Z,17.00
2022-10-19T17:17:17.758Z,16.90
2022-10-19T17:19:49.745Z,16.90
2022-10-19T17:22:21.608Z,16.80
2022-10-19T17:24:55.455Z,16.80
2022-10-19T17:30:04.539Z,16.80
2022-10-19T17:32:36.738Z,16.70
2022-10-19T17:35:09.026Z,16.70
2022-10-19T17:37:40.934Z,16.60
2022-10-19T17:40:13.098Z,16.60
2022-10-19T17:42:45.039Z,16.50
2022-10-19T17:45:17.185Z,16.50
2022-10-19T17:47:49.093Z,16.50
2022-10-19T17:50:21.033Z,16.40
2022-10-19T17:52:52.959Z,16.40
2022-10-19T17:55:26.933Z,16.30
2022-10-19T17:57:59.393Z,16.30
2022-10-19T18:00:31.598Z,16.30
2022-10-19T18:03:03.678Z,16.30
2022-10-19T18:05:35.926Z,16.30
2022-10-19T18:08:07.926Z,16.20
2022-10-19T18:10:39.805Z,16.20
2022-10-19T18:13:11.707Z,16.20
2022-10-19T18:15:43.615Z,16.20
2022-10-19T18:18:15.656Z,16.20
2022-10-19T18:20:47.547Z,16.20
2022-10-19T18:23:19.451Z,16.10
2022-10-19T18:25:54.192Z,16.10
2022-10-19T18:28:26.331Z,16.00
2022-10-19T18:31:14.253Z,16.00
2022-10-19T18:33:48.768Z,16.00
2022-10-19T18:36:21.424Z,16.10
2022-10-19T18:38:56.897Z,16.00
2022-10-19T18:41:29.821Z,16.00
2022-10-19T18:44:05.820Z,16.00
2022-10-19T18:46:38.234Z,15.90
2022-10-19T18:49:12.744Z,15.90
2022-10-19T18:51:50.662Z,15.90
2022-10-19T18:54:28.057Z,15.80
2022-10-19T18:57:00.069Z,15.80
2022-10-19T18:59:32.444Z,15.80
2022-10-19T19:02:05.875Z,15.80
2022-10-19T19:04:38.163Z,15.80
2022-10-19T19:07:10.217Z,15.70
2022-10-19T19:09:43.777Z,15.70
2022-10-19T19:12:16.032Z,15.70
2022-10-19T19:14:48.022Z,15.70
2022-10-19T19:17:19.917Z,15.70
2022-10-19T19:19:51.810Z,15.60
2022-10-19T19:22:26.071Z,15.60
2022-10-19T19:24:58.092Z,15.60
2022-10-19T19:27:31.950Z,15.50
2022-10-19T19:30:04.881Z,15.50
2022-10-19T19:32:37.069Z,15.50
2022-10-19T19:35:09.477Z,15.40
2022-10-19T19:37:41.325Z,15.40
2022-10-19T19:40:13.303Z,15.30
2022-10-19T19:42:45.267Z,15.40
2022-10-19T19:45:17.395Z,15.30
2022-10-19T19:47:49.273Z,15.30
2022-10-19T19:50:21.197Z,15.30
2022-10-19T19:52:53.171Z,15.30
2022-10-19T19:55:25.731Z,15.20
2022-10-19T19:57:57.593Z,15.20
2022-10-19T20:00:29.852Z,15.10
2022-10-19T20:03:01.754Z,15.10
2022-10-19T20:05:33.757Z,15.10
2022-10-19T20:08:06.370Z,15.10
2022-10-19T20:10:41.067Z,15.00
2022-10-19T20:13:12.929Z,15.00
2022-10-19T20:15:44.782Z,15.00
2022-10-19T20:18:16.697Z,15.00
2022-10-19T20:20:49.654Z,15.00
2022-10-19T20:23:21.539Z,15.00
2022-10-19T20:25:53.727Z,14.90
2022-10-19T20:28:27.412Z,14.90
2022-10-19T20:31:06.740Z,14.90
2022-10-19T20:33:41.156Z,14.90
2022-10-19T20:36:21.030Z,14.80
2022-10-19T20:38:56.978Z,14.80
2022-10-19T20:41:29.165Z,14.80
2022-10-19T20:44:01.246Z,14.80
2022-10-19T20:46:33.228Z,14.70
2022-10-19T20:49:05.447Z,14.70
2022-10-19T20:51:38.737Z,14.70
2022-10-19T20:54:12.698Z,14.70
2022-10-19T20:56:44.626Z,14.70
2022-10-19T20:59:20.832Z,14.70
2022-10-19T21:01:57.106Z,14.70
2022-10-19T21:04:29.217Z,14.70
2022-10-19T21:07:01.195Z,14.60
2022-10-19T21:09:33.281Z,14.60
2022-10-19T21:12:05.253Z,14.60
2022-10-19T21:14:37.335Z,14.60
2022-10-19T21:17:09.194Z,14.60
2022-10-19T21:19:41.158Z,14.60
2022-10-19T21:22:14.115Z,14.60
2022-10-19T21:24:45.978Z,14.60
2022-10-19T21:27:17.876Z,14.50
2022-10-19T21:29:49.718Z,14.50
2022-10-19T21:32:21.908Z,14.40
2022-10-19T21:34:53.926Z,14.50
2022-10-19T21:37:25.815Z,14.50
2022-10-19T21:39:57.732Z,14.50
2022-10-19T21:42:29.583Z,14.50
2022-10-19T21:45:18.215Z,14.50
2022-10-19T21:47:53.438Z,14.50
2022-10-19T21:50:25.348Z,14.40
2022-10-19T21:52:57.248Z,14.40
2022-10-19T21:55:34.342Z,14.40
2022-10-19T21:58:06.248Z,14.40
2022-10-19T22:00:38.332Z,14.40
2022-10-19T22:03:11.103Z,14.40
2022-10-19T22:05:51.633Z,14.40
2022-10-19T22:08:23.535Z,14.30
2022-10-19T22:10:55.413Z,14.40
2022-10-19T22:13:27.296Z,14.40
2022-10-19T22:16:15.517Z,14.40
2022-10-19T22:18:48.599Z,14.40
2022-10-19T22:21:27.990Z,14.30
2022-10-19T22:24:04.558Z,14.30
2022-10-19T22:26:45.543Z,14.30
2022-10-19T22:29:18.079Z,14.30
2022-10-19T22:31:49.963Z,14.30
2022-10-19T22:34:21.932Z,14.20
2022-10-19T22:36:53.895Z,14.20
2022-10-19T22:39:27.879Z,14.20
2022-10-19T22:43:15.404Z,14.20
2022-10-19T22:45:48.928Z,14.20
2022-10-19T22:48:21.045Z,14.10
2022-10-19T22:50:54.825Z,14.10
2022-10-19T22:53:27.340Z,14.10
2022-10-19T22:55:59.236Z,14.10
2022-10-19T22:58:31.163Z,14.10
2022-10-19T23:01:08.570Z,14.10
2022-10-19T23:03:40.996Z,14.10
2022-10-19T23:06:15.602Z,14.10
2022-10-19T23:08:48.238Z,14.10
2022-10-19T23:11:21.374Z,14.10
2022-10-19T23:13:53.591Z,14.00
2022-10-19T23:16:25.575Z,14.10
2022-10-19T23:18:57.534Z,14.10
2022-10-19T23:21:29.501Z,14.10
2022-10-19T23:24:01.492Z,14.10
2022-10-19T23:26:33.419Z,14.10
2022-10-19T23:29:05.334Z,14.10
2022-10-19T23:31:38.198Z,14.10
2022-10-19T23:34:10.175Z,14.10
2022-10-19T23:36:42.090Z,14.10
2022-10-19T23:39:14.188Z,14.10
2022-10-19T23:41:46.043Z,14.10
2022-10-19T23:44:17.946Z,14.10
2022-10-19T23:46:50.382Z,14.10
2022-10-19T23:49:22.304Z,14.10
2022-10-19T23:51:54.251Z,14.10
2022-10-19T23:54:26.308Z,14.10
2022-10-19T23:56:58.310Z,14.00
2022-10-19T23:59:30.368Z,14.00
